sensor_id;sensor_type;location;lat;lon;timestamp;P1;durP1;ratioP1;P2;durP2;ratioP2
80270;SDS011;69573;45.560;10.200;2023-04-28T00:02:26;7.35;;;4.60;;
80270;SDS011;69573;45.560;10.200;2023-04-28T00:04:53;7.43;;;4.80;;
80270;SDS011;69573;45.560;10.200;2023-04-28T00:07:20;8.48;;;5.20;;
80270;SDS011;69573;45.560;10.200;2023-04-28T00:09:46;5.35;;;4.57;;
80270;SDS011;69573;45.560;10.200;2023-04-28T00:12:13;8.30;;;4.20;;
80270;SDS011;69573;45.560;10.200;2023-04-28T00:14:39;5.07;;;4.55;;
80270;SDS011;69573;45.560;10.200;2023-04-28T00:17:05;6.72;;;4.60;;
80270;SDS011;69573;45.560;10.200;2023-04-28T00:19:33;10.27;;;4.78;;
80270;SDS011;69573;45.560;10.200;2023-04-28T00:22:00;7.07;;;4.47;;
80270;SDS011;69573;45.560;10.200;2023-04-28T00:24:28;6.55;;;4.03;;
80270;SDS011;69573;45.560;10.200;2023-04-28T00:26:56;6.43;;;4.35;;
80270;SDS011;69573;45.560;10.200;2023-04-28T00:29:22;8.38;;;5.13;;
80270;SDS011;69573;45.560;10.200;2023-04-28T00:31:49;5.93;;;4.28;;
80270;SDS011;69573;45.560;10.200;2023-04-28T00:34:16;6.13;;;4.70;;
80270;SDS011;69573;45.560;10.200;2023-04-28T00:36:42;5.15;;;3.95;;
80270;SDS011;69573;45.560;10.200;2023-04-28T00:39:08;8.70;;;4.43;;
80270;SDS011;69573;45.560;10.200;2023-04-28T00:41:35;5.82;;;3.90;;
80270;SDS011;69573;45.560;10.200;2023-04-28T00:44:01;7.55;;;4.38;;
80270;SDS011;69573;45.560;10.200;2023-04-28T00:46:28;6.80;;;4.25;;
80270;SDS011;69573;45.560;10.200;2023-04-28T00:48:56;5.32;;;4.20;;
80270;SDS011;69573;45.560;10.200;2023-04-28T00:51:22;9.02;;;4.32;;
80270;SDS011;69573;45.560;10.200;2023-04-28T00:53:49;5.13;;;4.28;;
80270;SDS011;69573;45.560;10.200;2023-04-28T00:56:15;8.00;;;4.90;;
80270;SDS011;69573;45.560;10.200;2023-04-28T00:58:42;5.18;;;3.97;;
80270;SDS011;69573;45.560;10.200;2023-04-28T01:01:08;6.80;;;4.25;;
80270;SDS011;69573;45.560;10.200;2023-04-28T01:03:38;6.00;;;4.43;;
80270;SDS011;69573;45.560;10.200;2023-04-28T01:08:31;5.07;;;3.85;;
80270;SDS011;69573;45.560;10.200;2023-04-28T01:10:58;6.18;;;4.18;;
80270;SDS011;69573;45.560;10.200;2023-04-28T01:13:24;5.90;;;4.43;;
80270;SDS011;69573;45.560;10.200;2023-04-28T01:15:50;5.45;;;4.57;;
80270;SDS011;69573;45.560;10.200;2023-04-28T01:18:16;7.30;;;4.53;;
80270;SDS011;69573;45.560;10.200;2023-04-28T01:20:43;5.00;;;3.92;;
80270;SDS011;69573;45.560;10.200;2023-04-28T01:23:12;8.13;;;4.30;;
80270;SDS011;69573;45.560;10.200;2023-04-28T01:25:39;5.38;;;4.35;;
80270;SDS011;69573;45.560;10.200;2023-04-28T01:28:06;5.15;;;4.22;;
80270;SDS011;69573;45.560;10.200;2023-04-28T01:30:32;7.85;;;5.00;;
80270;SDS011;69573;45.560;10.200;2023-04-28T01:33:00;5.55;;;4.40;;
80270;SDS011;69573;45.560;10.200;2023-04-28T01:35:26;6.93;;;4.60;;
80270;SDS011;69573;45.560;10.200;2023-04-28T01:37:52;5.65;;;4.28;;
80270;SDS011;69573;45.560;10.200;2023-04-28T01:40:19;5.43;;;3.90;;
80270;SDS011;69573;45.560;10.200;2023-04-28T01:42:45;5.90;;;4.53;;
80270;SDS011;69573;45.560;10.200;2023-04-28T01:45:12;5.15;;;4.10;;
80270;SDS011;69573;45.560;10.200;2023-04-28T01:47:38;8.90;;;4.32;;
80270;SDS011;69573;45.560;10.200;2023-04-28T01:50:05;4.78;;;3.78;;
80270;SDS011;69573;45.560;10.200;2023-04-28T01:52:31;7.50;;;4.85;;
80270;SDS011;69573;45.560;10.200;2023-04-28T01:54:57;4.57;;;3.67;;
80270;SDS011;69573;45.560;10.200;2023-04-28T01:57:24;7.03;;;4.82;;
80270;SDS011;69573;45.560;10.200;2023-04-28T01:59:50;5.53;;;4.68;;
80270;SDS011;69573;45.560;10.200;2023-04-28T02:02:17;4.93;;;4.25;;
80270;SDS011;69573;45.560;10.200;2023-04-28T02:04:43;7.07;;;4.28;;
80270;SDS011;69573;45.560;10.200;2023-04-28T02:07:09;7.28;;;4.32;;
80270;SDS011;69573;45.560;10.200;2023-04-28T02:09:36;5.78;;;4.30;;
80270;SDS011;69573;45.560;10.200;2023-04-28T02:12:02;5.57;;;4.18;;
80270;SDS011;69573;45.560;10.200;2023-04-28T02:14:32;6.93;;;4.63;;
80270;SDS011;69573;45.560;10.200;2023-04-28T02:16:58;6.93;;;4.53;;
80270;SDS011;69573;45.560;10.200;2023-04-28T02:19:24;9.98;;;4.40;;
80270;SDS011;69573;45.560;10.200;2023-04-28T02:21:54;12.18;;;7.18;;
80270;SDS011;69573;45.560;10.200;2023-04-28T02:24:20;9.63;;;5.85;;
80270;SDS011;69573;45.560;10.200;2023-04-28T02:26:46;5.10;;;4.53;;
80270;SDS011;69573;45.560;10.200;2023-04-28T02:29:13;5.85;;;4.40;;
80270;SDS011;69573;45.560;10.200;2023-04-28T02:31:39;8.73;;;4.45;;
80270;SDS011;69573;45.560;10.200;2023-04-28T02:34:09;8.07;;;4.57;;
80270;SDS011;69573;45.560;10.200;2023-04-28T02:36:35;9.35;;;6.13;;
80270;SDS011;69573;45.560;10.200;2023-04-28T02:39:02;5.47;;;4.28;;
80270;SDS011;69573;45.560;10.200;2023-04-28T02:41:28;6.65;;;3.95;;
80270;SDS011;69573;45.560;10.200;2023-04-28T02:43:55;8.18;;;4.80;;
80270;SDS011;69573;45.560;10.200;2023-04-28T02:46:21;7.18;;;4.32;;
80270;SDS011;69573;45.560;10.200;2023-04-28T02:48:48;5.80;;;4.32;;
80270;SDS011;69573;45.560;10.200;2023-04-28T02:51:14;5.32;;;3.88;;
80270;SDS011;69573;45.560;10.200;2023-04-28T02:53:40;6.07;;;4.50;;
80270;SDS011;69573;45.560;10.200;2023-04-28T02:56:07;5.22;;;3.85;;
80270;SDS011;69573;45.560;10.200;2023-04-28T02:58:33;8.15;;;5.22;;
80270;SDS011;69573;45.560;10.200;2023-04-28T03:01:00;5.38;;;4.40;;
80270;SDS011;69573;45.560;10.200;2023-04-28T03:03:26;6.97;;;4.68;;
80270;SDS011;69573;45.560;10.200;2023-04-28T03:05:52;7.85;;;4.25;;
80270;SDS011;69573;45.560;10.200;2023-04-28T03:08:20;6.35;;;3.97;;
80270;SDS011;69573;45.560;10.200;2023-04-28T03:10:47;5.15;;;4.10;;
80270;SDS011;69573;45.560;10.200;2023-04-28T03:13:13;6.60;;;4.43;;
80270;SDS011;69573;45.560;10.200;2023-04-28T03:15:39;6.43;;;4.13;;
80270;SDS011;69573;45.560;10.200;2023-04-28T03:18:06;9.52;;;4.00;;
80270;SDS011;69573;45.560;10.200;2023-04-28T03:20:34;7.13;;;4.50;;
80270;SDS011;69573;45.560;10.200;2023-04-28T03:23:01;5.95;;;3.97;;
80270;SDS011;69573;45.560;10.200;2023-04-28T03:25:27;6.93;;;4.35;;
80270;SDS011;69573;45.560;10.200;2023-04-28T03:27:54;4.43;;;3.72;;
80270;SDS011;69573;45.560;10.200;2023-04-28T03:30:20;5.43;;;3.92;;
80270;SDS011;69573;45.560;10.200;2023-04-28T03:32:46;9.05;;;4.75;;
80270;SDS011;69573;45.560;10.200;2023-04-28T03:35:13;6.35;;;4.13;;
80270;SDS011;69573;45.560;10.200;2023-04-28T03:37:39;6.32;;;4.43;;
80270;SDS011;69573;45.560;10.200;2023-04-28T03:40:06;6.28;;;4.53;;
80270;SDS011;69573;45.560;10.200;2023-04-28T03:42:37;4.78;;;3.85;;
80270;SDS011;69573;45.560;10.200;2023-04-28T03:45:03;6.90;;;5.05;;
80270;SDS011;69573;45.560;10.200;2023-04-28T03:47:30;5.10;;;3.92;;
80270;SDS011;69573;45.560;10.200;2023-04-28T03:49:56;7.18;;;4.72;;
80270;SDS011;69573;45.560;10.200;2023-04-28T03:52:23;7.85;;;4.38;;
80270;SDS011;69573;45.560;10.200;2023-04-28T03:54:50;4.82;;;4.07;;
80270;SDS011;69573;45.560;10.200;2023-04-28T03:57:16;7.68;;;4.70;;
80270;SDS011;69573;45.560;10.200;2023-04-28T03:59:48;5.72;;;4.03;;
80270;SDS011;69573;45.560;10.200;2023-04-28T04:02:16;7.18;;;4.30;;
80270;SDS011;69573;45.560;10.200;2023-04-28T04:04:42;8.32;;;4.13;;
80270;SDS011;69573;45.560;10.200;2023-04-28T04:07:09;7.90;;;4.82;;
80270;SDS011;69573;45.560;10.200;2023-04-28T04:09:35;8.88;;;4.15;;
80270;SDS011;69573;45.560;10.200;2023-04-28T04:12:01;6.03;;;4.38;;
80270;SDS011;69573;45.560;10.200;2023-04-28T04:14:28;4.97;;;3.97;;
80270;SDS011;69573;45.560;10.200;2023-04-28T04:16:54;7.57;;;4.35;;
80270;SDS011;69573;45.560;10.200;2023-04-28T04:19:20;6.82;;;4.57;;
80270;SDS011;69573;45.560;10.200;2023-04-28T04:21:48;4.80;;;4.10;;
80270;SDS011;69573;45.560;10.200;2023-04-28T04:24:14;4.90;;;4.15;;
80270;SDS011;69573;45.560;10.200;2023-04-28T04:26:40;9.35;;;4.85;;
80270;SDS011;69573;45.560;10.200;2023-04-28T04:29:07;7.80;;;4.00;;
80270;SDS011;69573;45.560;10.200;2023-04-28T04:31:33;7.70;;;4.40;;
80270;SDS011;69573;45.560;10.200;2023-04-28T04:34:00;6.82;;;4.45;;
80270;SDS011;69573;45.560;10.200;2023-04-28T04:36:26;5.70;;;4.03;;
80270;SDS011;69573;45.560;10.200;2023-04-28T04:38:52;5.60;;;4.10;;
80270;SDS011;69573;45.560;10.200;2023-04-28T04:41:19;7.28;;;4.68;;
80270;SDS011;69573;45.560;10.200;2023-04-28T04:43:45;7.63;;;5.00;;
80270;SDS011;69573;45.560;10.200;2023-04-28T04:46:11;5.60;;;3.65;;
80270;SDS011;69573;45.560;10.200;2023-04-28T04:48:38;8.55;;;5.05;;
80270;SDS011;69573;45.560;10.200;2023-04-28T04:51:04;6.75;;;4.32;;
80270;SDS011;69573;45.560;10.200;2023-04-28T04:53:31;6.82;;;4.68;;
80270;SDS011;69573;45.560;10.200;2023-04-28T04:55:57;7.03;;;4.28;;
80270;SDS011;69573;45.560;10.200;2023-04-28T04:58:24;7.18;;;4.50;;
80270;SDS011;69573;45.560;10.200;2023-04-28T05:00:50;7.05;;;4.25;;
80270;SDS011;69573;45.560;10.200;2023-04-28T05:03:16;6.22;;;4.20;;
80270;SDS011;69573;45.560;10.200;2023-04-28T05:05:43;5.85;;;4.35;;
80270;SDS011;69573;45.560;10.200;2023-04-28T05:08:15;7.38;;;3.75;;
80270;SDS011;69573;45.560;10.200;2023-04-28T05:10:45;5.72;;;4.60;;
80270;SDS011;69573;45.560;10.200;2023-04-28T05:13:11;6.50;;;4.35;;
80270;SDS011;69573;45.560;10.200;2023-04-28T05:15:37;5.88;;;3.95;;
80270;SDS011;69573;45.560;10.200;2023-04-28T05:18:06;6.25;;;4.53;;
80270;SDS011;69573;45.560;10.200;2023-04-28T05:20:35;5.85;;;4.32;;
80270;SDS011;69573;45.560;10.200;2023-04-28T05:23:01;6.65;;;4.55;;
80270;SDS011;69573;45.560;10.200;2023-04-28T05:25:27;6.82;;;4.32;;
80270;SDS011;69573;45.560;10.200;2023-04-28T05:27:54;5.68;;;4.55;;
80270;SDS011;69573;45.560;10.200;2023-04-28T05:30:21;6.63;;;4.40;;
80270;SDS011;69573;45.560;10.200;2023-04-28T05:32:47;8.07;;;5.22;;
80270;SDS011;69573;45.560;10.200;2023-04-28T05:35:14;9.73;;;4.90;;
80270;SDS011;69573;45.560;10.200;2023-04-28T05:37:40;6.30;;;4.78;;
80270;SDS011;69573;45.560;10.200;2023-04-28T05:40:09;6.38;;;4.57;;
80270;SDS011;69573;45.560;10.200;2023-04-28T05:42:35;6.05;;;4.57;;
80270;SDS011;69573;45.560;10.200;2023-04-28T05:45:01;5.38;;;4.22;;
80270;SDS011;69573;45.560;10.200;2023-04-28T05:47:28;7.13;;;5.07;;
80270;SDS011;69573;45.560;10.200;2023-04-28T05:49:55;10.18;;;5.45;;
80270;SDS011;69573;45.560;10.200;2023-04-28T05:52:21;7.60;;;4.72;;
80270;SDS011;69573;45.560;10.200;2023-04-28T05:54:48;6.88;;;4.22;;
80270;SDS011;69573;45.560;10.200;2023-04-28T05:57:14;7.55;;;4.45;;
80270;SDS011;69573;45.560;10.200;2023-04-28T05:59:41;9.23;;;5.20;;
80270;SDS011;69573;45.560;10.200;2023-04-28T06:02:08;9.02;;;5.07;;
80270;SDS011;69573;45.560;10.200;2023-04-28T06:04:34;8.40;;;5.00;;
80270;SDS011;69573;45.560;10.200;2023-04-28T06:07:00;7.18;;;4.63;;
80270;SDS011;69573;45.560;10.200;2023-04-28T06:09:27;8.30;;;5.38;;
80270;SDS011;69573;45.560;10.200;2023-04-28T06:11:53;8.57;;;4.97;;
80270;SDS011;69573;45.560;10.200;2023-04-28T06:14:21;7.18;;;5.60;;
80270;SDS011;69573;45.560;10.200;2023-04-28T06:16:47;9.38;;;4.93;;
80270;SDS011;69573;45.560;10.200;2023-04-28T06:19:14;7.25;;;5.05;;
80270;SDS011;69573;45.560;10.200;2023-04-28T06:21:42;9.02;;;4.95;;
80270;SDS011;69573;45.560;10.200;2023-04-28T06:24:09;7.82;;;5.10;;
80270;SDS011;69573;45.560;10.200;2023-04-28T06:26:36;6.78;;;4.68;;
80270;SDS011;69573;45.560;10.200;2023-04-28T06:29:02;6.30;;;4.78;;
80270;SDS011;69573;45.560;10.200;2023-04-28T06:31:29;6.22;;;4.70;;
80270;SDS011;69573;45.560;10.200;2023-04-28T06:39:14;6.35;;;4.47;;
80270;SDS011;69573;45.560;10.200;2023-04-28T06:41:40;8.52;;;5.57;;
80270;SDS011;69573;45.560;10.200;2023-04-28T06:44:06;8.63;;;5.25;;
80270;SDS011;69573;45.560;10.200;2023-04-28T06:46:33;8.20;;;5.72;;
80270;SDS011;69573;45.560;10.200;2023-04-28T06:48:59;9.13;;;5.03;;
80270;SDS011;69573;45.560;10.200;2023-04-28T06:51:26;8.30;;;5.35;;
80270;SDS011;69573;45.560;10.200;2023-04-28T06:53:53;6.90;;;5.07;;
80270;SDS011;69573;45.560;10.200;2023-04-28T06:56:19;8.43;;;4.30;;
80270;SDS011;69573;45.560;10.200;2023-04-28T06:58:45;7.35;;;4.72;;
80270;SDS011;69573;45.560;10.200;2023-04-28T07:01:12;8.35;;;4.50;;
80270;SDS011;69573;45.560;10.200;2023-04-28T07:03:39;5.18;;;4.28;;
80270;SDS011;69573;45.560;10.200;2023-04-28T07:06:05;7.15;;;4.78;;
80270;SDS011;69573;45.560;10.200;2023-04-28T07:08:31;12.20;;;5.30;;
80270;SDS011;69573;45.560;10.200;2023-04-28T07:10:58;6.20;;;4.22;;
80270;SDS011;69573;45.560;10.200;2023-04-28T07:13:28;8.52;;;4.50;;
80270;SDS011;69573;45.560;10.200;2023-04-28T07:15:54;9.52;;;5.32;;
80270;SDS011;69573;45.560;10.200;2023-04-28T07:18:21;5.32;;;4.75;;
80270;SDS011;69573;45.560;10.200;2023-04-28T07:20:48;9.10;;;4.93;;
80270;SDS011;69573;45.560;10.200;2023-04-28T07:23:14;9.85;;;4.40;;
80270;SDS011;69573;45.560;10.200;2023-04-28T07:25:40;7.20;;;5.07;;
80270;SDS011;69573;45.560;10.200;2023-04-28T07:28:07;6.43;;;4.57;;
80270;SDS011;69573;45.560;10.200;2023-04-28T07:30:33;5.68;;;4.85;;
80270;SDS011;69573;45.560;10.200;2023-04-28T07:33:00;8.95;;;5.03;;
80270;SDS011;69573;45.560;10.200;2023-04-28T07:35:26;7.55;;;4.93;;
80270;SDS011;69573;45.560;10.200;2023-04-28T07:37:53;9.23;;;5.38;;
80270;SDS011;69573;45.560;10.200;2023-04-28T07:40:20;8.68;;;4.63;;
80270;SDS011;69573;45.560;10.200;2023-04-28T07:42:46;8.55;;;4.85;;
80270;SDS011;69573;45.560;10.200;2023-04-28T07:45:13;8.23;;;4.30;;
80270;SDS011;69573;45.560;10.200;2023-04-28T07:47:40;6.68;;;4.30;;
80270;SDS011;69573;45.560;10.200;2023-04-28T07:50:06;6.47;;;4.25;;
80270;SDS011;69573;45.560;10.200;2023-04-28T07:52:33;7.00;;;4.85;;
80270;SDS011;69573;45.560;10.200;2023-04-28T07:55:00;6.00;;;4.95;;
80270;SDS011;69573;45.560;10.200;2023-04-28T07:57:27;6.43;;;3.70;;
80270;SDS011;69573;45.560;10.200;2023-04-28T07:59:53;8.20;;;4.80;;
80270;SDS011;69573;45.560;10.200;2023-04-28T08:02:20;7.88;;;4.15;;
80270;SDS011;69573;45.560;10.200;2023-04-28T08:04:46;5.72;;;4.43;;
80270;SDS011;69573;45.560;10.200;2023-04-28T08:07:12;6.47;;;4.13;;
80270;SDS011;69573;45.560;10.200;2023-04-28T08:09:39;7.63;;;4.35;;
80270;SDS011;69573;45.560;10.200;2023-04-28T08:12:09;4.70;;;3.83;;
80270;SDS011;69573;45.560;10.200;2023-04-28T08:14:36;8.63;;;3.67;;
80270;SDS011;69573;45.560;10.200;2023-04-28T08:17:02;6.25;;;3.53;;
80270;SDS011;69573;45.560;10.200;2023-04-28T08:19:29;4.00;;;3.22;;
80270;SDS011;69573;45.560;10.200;2023-04-28T08:21:55;6.25;;;3.50;;
80270;SDS011;69573;45.560;10.200;2023-04-28T08:24:22;7.15;;;3.75;;
80270;SDS011;69573;45.560;10.200;2023-04-28T08:26:48;5.22;;;3.30;;
80270;SDS011;69573;45.560;10.200;2023-04-28T08:29:14;6.45;;;2.70;;
80270;SDS011;69573;45.560;10.200;2023-04-28T08:31:40;5.43;;;2.78;;
80270;SDS011;69573;45.560;10.200;2023-04-28T08:34:07;3.45;;;2.35;;
80270;SDS011;69573;45.560;10.200;2023-04-28T08:36:34;3.47;;;2.40;;
80270;SDS011;69573;45.560;10.200;2023-04-28T08:39:00;4.97;;;2.70;;
80270;SDS011;69573;45.560;10.200;2023-04-28T08:41:27;5.75;;;3.25;;
80270;SDS011;69573;45.560;10.200;2023-04-28T08:43:57;5.63;;;3.17;;
80270;SDS011;69573;45.560;10.200;2023-04-28T08:46:23;4.03;;;3.38;;
80270;SDS011;69573;45.560;10.200;2023-04-28T08:48:51;8.05;;;3.30;;
80270;SDS011;69573;45.560;10.200;2023-04-28T08:51:32;5.22;;;3.22;;
80270;SDS011;69573;45.560;10.200;2023-04-28T08:54:11;4.63;;;3.03;;
80270;SDS011;69573;45.560;10.200;2023-04-28T08:56:40;4.88;;;2.10;;
80270;SDS011;69573;45.560;10.200;2023-04-28T08:59:09;3.63;;;2.55;;
80270;SDS011;69573;45.560;10.200;2023-04-28T09:01:35;5.78;;;3.05;;
80270;SDS011;69573;45.560;10.200;2023-04-28T09:04:02;4.38;;;2.47;;
80270;SDS011;69573;45.560;10.200;2023-04-28T09:06:35;3.67;;;1.73;;
80270;SDS011;69573;45.560;10.200;2023-04-28T09:11:52;3.50;;;1.98;;
80270;SDS011;69573;45.560;10.200;2023-04-28T09:14:19;4.93;;;2.80;;
80270;SDS011;69573;45.560;10.200;2023-04-28T09:16:46;6.22;;;2.35;;
80270;SDS011;69573;45.560;10.200;2023-04-28T09:19:13;5.10;;;2.60;;
80270;SDS011;69573;45.560;10.200;2023-04-28T09:21:49;4.57;;;2.10;;
80270;SDS011;69573;45.560;10.200;2023-04-28T09:26:59;2.60;;;1.95;;
80270;SDS011;69573;45.560;10.200;2023-04-28T09:29:26;4.68;;;2.45;;
80270;SDS011;69573;45.560;10.200;2023-04-28T09:31:52;5.25;;;2.20;;
80270;SDS011;69573;45.560;10.200;2023-04-28T09:34:21;3.28;;;2.03;;
80270;SDS011;69573;45.560;10.200;2023-04-28T09:37:13;3.55;;;2.13;;
80270;SDS011;69573;45.560;10.200;2023-04-28T09:39:39;4.05;;;2.05;;
80270;SDS011;69573;45.560;10.200;2023-04-28T09:42:06;5.50;;;2.63;;
80270;SDS011;69573;45.560;10.200;2023-04-28T09:44:32;3.15;;;2.33;;
80270;SDS011;69573;45.560;10.200;2023-04-28T09:46:58;3.60;;;2.38;;
80270;SDS011;69573;45.560;10.200;2023-04-28T09:49:25;3.33;;;2.70;;
80270;SDS011;69573;45.560;10.200;2023-04-28T09:51:51;4.85;;;2.50;;
80270;SDS011;69573;45.560;10.200;2023-04-28T09:54:17;4.40;;;2.65;;
80270;SDS011;69573;45.560;10.200;2023-04-28T09:56:47;3.72;;;2.80;;
80270;SDS011;69573;45.560;10.200;2023-04-28T09:59:14;4.05;;;2.30;;
80270;SDS011;69573;45.560;10.200;2023-04-28T10:01:40;5.18;;;3.13;;
80270;SDS011;69573;45.560;10.200;2023-04-28T10:04:08;6.65;;;2.92;;
80270;SDS011;69573;45.560;10.200;2023-04-28T10:06:36;6.47;;;2.70;;
80270;SDS011;69573;45.560;10.200;2023-04-28T10:09:02;4.30;;;2.90;;
80270;SDS011;69573;45.560;10.200;2023-04-28T10:11:28;6.07;;;3.90;;
80270;SDS011;69573;45.560;10.200;2023-04-28T10:13:55;4.93;;;3.40;;
80270;SDS011;69573;45.560;10.200;2023-04-28T10:16:21;5.15;;;3.13;;
80270;SDS011;69573;45.560;10.200;2023-04-28T10:18:48;5.60;;;3.30;;
80270;SDS011;69573;45.560;10.200;2023-04-28T10:21:16;6.55;;;3.00;;
80270;SDS011;69573;45.560;10.200;2023-04-28T10:27:02;8.18;;;4.20;;
80270;SDS011;69573;45.560;10.200;2023-04-28T10:29:24;5.60;;;3.13;;
80270;SDS011;69573;45.560;10.200;2023-04-28T10:32:33;6.68;;;3.72;;
80270;SDS011;69573;45.560;10.200;2023-04-28T10:34:40;5.95;;;4.55;;
80270;SDS011;69573;45.560;10.200;2023-04-28T10:37:06;6.18;;;3.65;;
80270;SDS011;69573;45.560;10.200;2023-04-28T10:39:33;7.30;;;3.40;;
80270;SDS011;69573;45.560;10.200;2023-04-28T10:41:59;6.93;;;4.07;;
80270;SDS011;69573;45.560;10.200;2023-04-28T10:47:16;5.35;;;3.72;;
80270;SDS011;69573;45.560;10.200;2023-04-28T10:58:29;4.13;;;3.38;;
80270;SDS011;69573;45.560;10.200;2023-04-28T11:00:34;8.90;;;3.83;;
80270;SDS011;69573;45.560;10.200;2023-04-28T11:03:01;5.65;;;3.95;;
80270;SDS011;69573;45.560;10.200;2023-04-28T11:05:28;5.50;;;3.53;;
80270;SDS011;69573;45.560;10.200;2023-04-28T11:13:42;6.07;;;3.47;;
80270;SDS011;69573;45.560;10.200;2023-04-28T11:16:14;5.38;;;3.67;;
80270;SDS011;69573;45.560;10.200;2023-04-28T11:18:54;5.35;;;3.65;;
80270;SDS011;69573;45.560;10.200;2023-04-28T11:23:47;5.28;;;3.30;;
80270;SDS011;69573;45.560;10.200;2023-04-28T11:26:13;4.47;;;3.20;;
80270;SDS011;69573;45.560;10.200;2023-04-28T11:28:49;6.18;;;3.92;;
80270;SDS011;69573;45.560;10.200;2023-04-28T11:31:16;7.05;;;3.83;;
80270;SDS011;69573;45.560;10.200;2023-04-28T11:33:53;4.88;;;3.13;;
80270;SDS011;69573;45.560;10.200;2023-04-28T11:36:21;8.75;;;3.72;;
80270;SDS011;69573;45.560;10.200;2023-04-28T11:38:47;4.93;;;3.63;;
80270;SDS011;69573;45.560;10.200;2023-04-28T11:41:13;5.07;;;3.53;;
80270;SDS011;69573;45.560;10.200;2023-04-28T11:43:40;7.13;;;4.32;;
80270;SDS011;69573;45.560;10.200;2023-04-28T11:46:06;6.43;;;4.30;;
80270;SDS011;69573;45.560;10.200;2023-04-28T11:48:32;5.38;;;4.78;;
80270;SDS011;69573;45.560;10.200;2023-04-28T11:50:58;7.15;;;4.38;;
80270;SDS011;69573;45.560;10.200;2023-04-28T11:53:43;5.72;;;3.83;;
80270;SDS011;69573;45.560;10.200;2023-04-28T11:56:09;6.13;;;4.05;;
80270;SDS011;69573;45.560;10.200;2023-04-28T11:58:38;5.50;;;4.10;;
80270;SDS011;69573;45.560;10.200;2023-04-28T12:01:11;5.43;;;4.53;;
80270;SDS011;69573;45.560;10.200;2023-04-28T12:03:45;6.22;;;4.35;;
80270;SDS011;69573;45.560;10.200;2023-04-28T12:06:15;6.20;;;4.60;;
80270;SDS011;69573;45.560;10.200;2023-04-28T12:08:42;7.05;;;5.20;;
80270;SDS011;69573;45.560;10.200;2023-04-28T12:11:10;6.95;;;4.82;;
80270;SDS011;69573;45.560;10.200;2023-04-28T12:13:39;7.00;;;5.25;;
80270;SDS011;69573;45.560;10.200;2023-04-28T12:16:06;7.80;;;5.30;;
80270;SDS011;69573;45.560;10.200;2023-04-28T12:18:32;8.05;;;5.60;;
80270;SDS011;69573;45.560;10.200;2023-04-28T12:20:59;8.18;;;5.68;;
80270;SDS011;69573;45.560;10.200;2023-04-28T12:23:32;7.32;;;5.65;;
80270;SDS011;69573;45.560;10.200;2023-04-28T12:25:59;8.40;;;5.97;;
80270;SDS011;69573;45.560;10.200;2023-04-28T12:28:38;8.45;;;5.80;;
80270;SDS011;69573;45.560;10.200;2023-04-28T12:31:05;8.60;;;5.70;;
80270;SDS011;69573;45.560;10.200;2023-04-28T12:33:35;9.85;;;5.78;;
80270;SDS011;69573;45.560;10.200;2023-04-28T12:36:04;10.18;;;5.78;;
80270;SDS011;69573;45.560;10.200;2023-04-28T12:38:31;10.77;;;5.38;;
80270;SDS011;69573;45.560;10.200;2023-04-28T12:40:58;8.57;;;5.40;;
80270;SDS011;69573;45.560;10.200;2023-04-28T12:43:24;7.57;;;5.85;;
80270;SDS011;69573;45.560;10.200;2023-04-28T12:45:53;8.23;;;6.10;;
80270;SDS011;69573;45.560;10.200;2023-04-28T12:48:22;7.32;;;6.50;;
80270;SDS011;69573;45.560;10.200;2023-04-28T12:50:49;9.63;;;6.57;;
80270;SDS011;69573;45.560;10.200;2023-04-28T12:53:16;9.18;;;6.78;;
80270;SDS011;69573;45.560;10.200;2023-04-28T12:55:42;7.68;;;6.40;;
80270;SDS011;69573;45.560;10.200;2023-04-28T12:58:08;8.20;;;6.13;;
80270;SDS011;69573;45.560;10.200;2023-04-28T13:00:35;9.13;;;6.32;;
80270;SDS011;69573;45.560;10.200;2023-04-28T13:03:01;7.97;;;5.45;;
80270;SDS011;69573;45.560;10.200;2023-04-28T13:05:28;8.30;;;5.55;;
80270;SDS011;69573;45.560;10.200;2023-04-28T13:07:54;8.35;;;6.28;;
80270;SDS011;69573;45.560;10.200;2023-04-28T13:10:20;8.65;;;6.40;;
80270;SDS011;69573;45.560;10.200;2023-04-28T13:12:47;7.43;;;5.70;;
80270;SDS011;69573;45.560;10.200;2023-04-28T13:15:14;7.72;;;6.80;;
80270;SDS011;69573;45.560;10.200;2023-04-28T13:17:41;7.85;;;6.45;;
80270;SDS011;69573;45.560;10.200;2023-04-28T13:20:07;11.45;;;6.82;;
80270;SDS011;69573;45.560;10.200;2023-04-28T13:22:34;10.93;;;7.53;;
80270;SDS011;69573;45.560;10.200;2023-04-28T13:25:01;9.18;;;6.85;;
80270;SDS011;69573;45.560;10.200;2023-04-28T13:27:27;8.70;;;7.30;;
80270;SDS011;69573;45.560;10.200;2023-04-28T13:29:55;7.45;;;6.65;;
80270;SDS011;69573;45.560;10.200;2023-04-28T13:32:23;7.68;;;6.72;;
80270;SDS011;69573;45.560;10.200;2023-04-28T13:34:49;8.38;;;7.38;;
80270;SDS011;69573;45.560;10.200;2023-04-28T13:37:15;9.25;;;7.53;;
80270;SDS011;69573;45.560;10.200;2023-04-28T13:39:42;8.50;;;6.47;;
80270;SDS011;69573;45.560;10.200;2023-04-28T13:42:09;10.20;;;7.30;;
80270;SDS011;69573;45.560;10.200;2023-04-28T13:44:37;7.68;;;6.15;;
80270;SDS011;69573;45.560;10.200;2023-04-28T13:47:03;7.13;;;6.43;;
80270;SDS011;69573;45.560;10.200;2023-04-28T13:49:33;8.35;;;7.07;;
80270;SDS011;69573;45.560;10.200;2023-04-28T13:51:59;9.68;;;7.38;;
80270;SDS011;69573;45.560;10.200;2023-04-28T13:54:27;8.25;;;7.13;;
80270;SDS011;69573;45.560;10.200;2023-04-28T13:56:54;10.88;;;7.32;;
80270;SDS011;69573;45.560;10.200;2023-04-28T13:59:20;7.45;;;6.75;;
80270;SDS011;69573;45.560;10.200;2023-04-28T14:01:47;7.32;;;6.45;;
80270;SDS011;69573;45.560;10.200;2023-04-28T14:04:13;8.77;;;6.82;;
80270;SDS011;69573;45.560;10.200;2023-04-28T14:06:39;7.60;;;6.03;;
80270;SDS011;69573;45.560;10.200;2023-04-28T14:09:06;8.38;;;6.82;;
80270;SDS011;69573;45.560;10.200;2023-04-28T14:11:32;8.18;;;6.78;;
80270;SDS011;69573;45.560;10.200;2023-04-28T14:13:59;8.13;;;7.32;;
80270;SDS011;69573;45.560;10.200;2023-04-28T14:16:25;8.60;;;7.55;;
80270;SDS011;69573;45.560;10.200;2023-04-28T14:18:51;8.35;;;7.45;;
80270;SDS011;69573;45.560;10.200;2023-04-28T14:21:17;8.75;;;7.65;;
80270;SDS011;69573;45.560;10.200;2023-04-28T14:23:44;8.02;;;7.03;;
80270;SDS011;69573;45.560;10.200;2023-04-28T14:26:10;7.35;;;6.65;;
80270;SDS011;69573;45.560;10.200;2023-04-28T14:28:37;10.10;;;7.50;;
80270;SDS011;69573;45.560;10.200;2023-04-28T14:31:03;8.05;;;6.38;;
80270;SDS011;69573;45.560;10.200;2023-04-28T14:33:31;9.43;;;7.07;;
80270;SDS011;69573;45.560;10.200;2023-04-28T14:35:57;8.48;;;7.60;;
80270;SDS011;69573;45.560;10.200;2023-04-28T14:38:25;8.65;;;7.75;;
80270;SDS011;69573;45.560;10.200;2023-04-28T14:40:52;9.57;;;7.75;;
80270;SDS011;69573;45.560;10.200;2023-04-28T14:43:19;10.02;;;7.82;;
80270;SDS011;69573;45.560;10.200;2023-04-28T14:45:48;12.43;;;7.72;;
80270;SDS011;69573;45.560;10.200;2023-04-28T14:48:15;8.23;;;7.32;;
80270;SDS011;69573;45.560;10.200;2023-04-28T14:50:41;9.65;;;7.05;;
80270;SDS011;69573;45.560;10.200;2023-04-28T14:53:08;8.25;;;6.70;;
80270;SDS011;69573;45.560;10.200;2023-04-28T14:55:35;6.72;;;5.70;;
80270;SDS011;69573;45.560;10.200;2023-04-28T14:58:02;7.20;;;6.50;;
80270;SDS011;69573;45.560;10.200;2023-04-28T15:00:28;8.32;;;6.05;;
80270;SDS011;69573;45.560;10.200;2023-04-28T15:02:55;9.00;;;6.82;;
80270;SDS011;69573;45.560;10.200;2023-04-28T15:05:22;7.78;;;6.57;;
80270;SDS011;69573;45.560;10.200;2023-04-28T15:07:49;9.18;;;6.82;;
80270;SDS011;69573;45.560;10.200;2023-04-28T15:10:15;9.32;;;6.43;;